Time;durP1;ratioP1;P1;durP2;ratioP2;P2;SDS_P1;SDS_P2;PMS_P1;PMS_P2;Temp;Humidity;BMP_temperature;BMP_pressure;BME280_temperature;BME280_humidity;BME280_pressure;Samples;Min_cycle;Max_cycle;Signal;HPM_P1;HPM_P2
2023/11/27 00:00:12;;;;;;;8.73;4.27;;;;;;;;;;6213483;23;20171;-90
2023/11/27 00:03:18;;;;;;;11.33;5.23;;;;;;;;;;6212410;23;20171;-92
2023/11/27 00:06:24;;;;;;;11.77;5.67;;;;;;;;;;6215105;23;20167;-90
2023/11/27 00:09:30;;;;;;;14.20;6.27;;;;;;;;;;6214610;22;20155;-90
2023/11/27 00:12:35;;;;;;;13.87;6.27;;;;;;;;;;6214128;22;20348;-91
2023/11/27 00:15:41;;;;;;;14.87;5.40;;;;;;;;;;6214521;23;20243;-91
2023/11/27 00:18:48;;;;;;;10.13;5.60;;;;;;;;;;6215503;23;20210;-91
2023/11/27 00:21:53;;;;;;;11.73;6.20;;;;;;;;;;6215251;23;20168;-90
2023/11/27 00:24:59;;;;;;;12.57;6.50;;;;;;;;;;6216360;22;20155;-90
2023/11/27 00:28:06;;;;;;;9.77;5.20;;;;;;;;;;6214387;22;20599;-90
2023/11/27 00:31:13;;;;;;;13.53;5.57;;;;;;;;;;6215121;23;20175;-88
2023/11/27 00:34:21;;;;;;;18.10;6.93;;;;;;;;;;6214255;23;20167;-90
2023/11/27 00:37:27;;;;;;;12.10;5.93;;;;;;;;;;6213446;23;20187;-89
2023/11/27 00:40:32;;;;;;;7.60;3.73;;;;;;;;;;6213627;23;20248;-90
2023/11/27 00:43:37;;;;;;;7.93;3.87;;;;;;;;;;6212648;23;20170;-89
2023/11/27 00:46:42;;;;;;;9.90;3.93;;;;;;;;;;6213922;23;20171;-90
2023/11/27 00:49:49;;;;;;;10.30;3.93;;;;;;;;;;6213403;23;20174;-88
2023/11/27 00:52:55;;;;;;;6.60;3.27;;;;;;;;;;6213718;22;20158;-91
2023/11/27 00:56:00;;;;;;;7.97;3.90;;;;;;;;;;6215587;22;20306;-91
2023/11/27 00:59:06;;;;;;;9.47;4.30;;;;;;;;;;6213783;23;20166;-92
2023/11/27 01:02:11;;;;;;;7.67;3.80;;;;;;;;;;6213471;23;20215;-90
2023/11/27 01:05:18;;;;;;;7.57;3.87;;;;;;;;;;6212527;22;20245;-90
2023/11/27 01:08:24;;;;;;;7.40;3.63;;;;;;;;;;6214138;22;20216;-91
2023/11/27 01:11:30;;;;;;;8.80;3.40;;;;;;;;;;6213424;22;20611;-91
2023/11/27 01:14:35;;;;;;;8.07;4.00;;;;;;;;;;6211601;23;20175;-90
2023/11/27 01:17:40;;;;;;;7.87;4.03;;;;;;;;;;6209594;23;20811;-93
2023/11/27 01:20:47;;;;;;;9.33;3.90;;;;;;;;;;6206940;23;20206;-90
2023/11/27 01:23:52;;;;;;;10.90;3.97;;;;;;;;;;6209186;23;20211;-91
2023/11/27 01:26:58;;;;;;;11.40;4.23;;;;;;;;;;6210484;22;20258;-93
2023/11/27 01:30:04;;;;;;;6.90;4.10;;;;;;;;;;6208915;23;20242;-91
2023/11/27 01:33:11;;;;;;;10.17;4.70;;;;;;;;;;6209080;23;20166;-90
2023/11/27 01:36:19;;;;;;;10.27;4.23;;;;;;;;;;6209193;22;20267;-89
2023/11/27 01:39:24;;;;;;;7.77;4.23;;;;;;;;;;6211892;23;20202;-90
2023/11/27 01:42:30;;;;;;;8.90;4.37;;;;;;;;;;6212393;23;20167;-91
2023/11/27 01:45:34;;;;;;;8.63;4.20;;;;;;;;;;6212003;23;20246;-91
2023/11/27 01:48:40;;;;;;;8.37;4.10;;;;;;;;;;6210099;23;20234;-92
2023/11/27 01:51:46;;;;;;;7.73;3.93;;;;;;;;;;6211414;23;20176;-89
2023/11/27 01:54:53;;;;;;;13.60;4.60;;;;;;;;;;6214522;23;20254;-91
2023/11/27 01:57:59;;;;;;;10.93;4.90;;;;;;;;;;6210797;23;20242;-90
2023/11/27 02:01:04;;;;;;;11.43;4.17;;;;;;;;;;6210141;23;20230;-91
2023/11/27 02:04:10;;;;;;;11.00;4.40;;;;;;;;;;6209108;23;20175;-90
2023/11/27 02:07:17;;;;;;;7.23;4.47;;;;;;;;;;6210848;22;20172;-91
2023/11/27 02:10:22;;;;;;;8.00;4.30;;;;;;;;;;6210192;23;20167;-89
2023/11/27 02:13:27;;;;;;;9.03;3.90;;;;;;;;;;6207755;23;20167;-90
2023/11/27 02:16:32;;;;;;;10.07;4.17;;;;;;;;;;6209672;23;20259;-91
2023/11/27 02:19:38;;;;;;;9.23;4.43;;;;;;;;;;6208803;23;20210;-90
2023/11/27 02:22:44;;;;;;;9.13;4.03;;;;;;;;;;6212576;23;20171;-92
2023/11/27 02:25:51;;;;;;;14.63;5.53;;;;;;;;;;6210952;23;20259;-92
2023/11/27 02:28:57;;;;;;;9.03;4.40;;;;;;;;;;6212601;23;20171;-90
2023/11/27 02:32:03;;;;;;;9.77;4.57;;;;;;;;;;6211139;23;20166;-87
2023/11/27 02:35:09;;;;;;;11.50;4.70;;;;;;;;;;6212197;23;20171;-91
2023/11/27 02:38:15;;;;;;;8.50;4.43;;;;;;;;;;6212618;22;20198;-92
2023/11/27 02:41:24;;;;;;;8.33;3.97;;;;;;;;;;6209674;23;20171;-90
2023/11/27 02:44:29;;;;;;;9.23;4.40;;;;;;;;;;6211507;23;20662;-93
2023/11/27 02:47:35;;;;;;;9.53;4.10;;;;;;;;;;6210521;23;20171;-91
2023/11/27 02:50:40;;;;;;;7.70;3.80;;;;;;;;;;6209928;23;20175;-93
2023/11/27 02:53:45;;;;;;;8.90;4.10;;;;;;;;;;6209898;23;20679;-89
2023/11/27 02:56:53;;;;;;;8.03;4.10;;;;;;;;;;6209513;23;20191;-92
2023/11/27 02:59:58;;;;;;;8.93;4.20;;;;;;;;;;6211673;23;20175;-90
2023/11/27 03:03:04;;;;;;;8.50;4.30;;;;;;;;;;6211002;23;20670;-90
2023/11/27 03:06:10;;;;;;;9.37;4.13;;;;;;;;;;6212156;23;20226;-89
2023/11/27 03:09:17;;;;;;;7.33;4.07;;;;;;;;;;6211408;23;20622;-90
2023/11/27 03:12:24;;;;;;;12.33;4.20;;;;;;;;;;6214036;23;20178;-93
2023/11/27 03:15:29;;;;;;;8.37;4.30;;;;;;;;;;6210452;23;20186;-90
2023/11/27 03:18:35;;;;;;;12.03;5.33;;;;;;;;;;6212868;22;20171;-90
2023/11/27 03:21:40;;;;;;;11.97;4.93;;;;;;;;;;6209657;23;20222;-90
2023/11/27 03:24:45;;;;;;;10.23;4.67;;;;;;;;;;6208328;23;20222;-90
2023/11/27 03:27:52;;;;;;;10.97;5.00;;;;;;;;;;6209799;23;20183;-91
2023/11/27 03:30:58;;;;;;;11.47;5.00;;;;;;;;;;6208796;23;20167;-90
2023/11/27 03:34:03;;;;;;;11.60;5.30;;;;;;;;;;6212177;23;20171;-91
2023/11/27 03:37:09;;;;;;;11.10;5.10;;;;;;;;;;6210750;22;20194;-90
2023/11/27 03:40:14;;;;;;;9.97;4.83;;;;;;;;;;6210329;23;20310;-90
2023/11/27 03:43:25;;;;;;;9.97;5.03;;;;;;;;;;6211984;23;20167;-90
2023/11/27 03:46:30;;;;;;;10.50;5.57;;;;;;;;;;6212223;22;20168;-88
2023/11/27 03:49:35;;;;;;;14.30;5.70;;;;;;;;;;6210020;23;20167;-89
2023/11/27 03:52:40;;;;;;;11.00;5.10;;;;;;;;;;6209501;23;20220;-90
2023/11/27 03:55:45;;;;;;;13.10;5.67;;;;;;;;;;6208938;23;20167;-91
2023/11/27 03:58:51;;;;;;;12.70;5.57;;;;;;;;;;6209176;23;20171;-91
2023/11/27 04:01:59;;;;;;;9.53;5.20;;;;;;;;;;6209557;22;20315;-90
2023/11/27 04:05:04;;;;;;;9.67;5.10;;;;;;;;;;6210457;23;20241;-90
2023/11/27 04:08:09;;;;;;;11.37;5.67;;;;;;;;;;6211081;23;20242;-91
2023/11/27 04:11:14;;;;;;;11.83;5.57;;;;;;;;;;6211710;23;20175;-90
2023/11/27 04:14:22;;;;;;;12.23;5.87;;;;;;;;;;6210251;23;20172;-91
2023/11/27 04:17:30;;;;;;;14.23;6.03;;;;;;;;;;6210065;22;20182;-89
2023/11/27 04:20:35;;;;;;;13.50;6.40;;;;;;;;;;6212243;23;20202;-90
2023/11/27 04:23:40;;;;;;;16.23;5.97;;;;;;;;;;6212738;23;20167;-89
2023/11/27 04:26:45;;;;;;;10.97;6.10;;;;;;;;;;6212485;23;20171;-90
2023/11/27 04:29:52;;;;;;;12.33;6.67;;;;;;;;;;6209679;23;20183;-90
2023/11/27 04:33:00;;;;;;;15.50;6.70;;;;;;;;;;6210885;22;20491;-89
2023/11/27 04:36:05;;;;;;;17.00;6.57;;;;;;;;;;6211339;22;20167;-89
2023/11/27 04:39:10;;;;;;;11.47;6.07;;;;;;;;;;6230196;22;20171;-90
2023/11/27 04:42:15;;;;;;;14.03;6.23;;;;;;;;;;6211602;23;20171;-91
2023/11/27 04:45:26;;;;;;;12.53;6.57;;;;;;;;;;6210162;22;20504;-91
2023/11/27 04:48:32;;;;;;;13.90;6.70;;;;;;;;;;6212334;22;20219;-91
2023/11/27 04:51:37;;;;;;;12.70;6.63;;;;;;;;;;6213364;23;20171;-92
2023/11/27 04:54:42;;;;;;;11.50;6.10;;;;;;;;;;6210849;22;20167;-90
2023/11/27 04:57:47;;;;;;;13.63;5.70;;;;;;;;;;6211458;23;20195;-91
2023/11/27 05:00:54;;;;;;;12.07;6.07;;;;;;;;;;6211467;23;20214;-90
2023/11/27 05:03:59;;;;;;;13.07;6.07;;;;;;;;;;6213205;22;20203;-91
2023/11/27 05:07:04;;;;;;;10.73;6.20;;;;;;;;;;6213333;23;20171;-90
2023/11/27 05:10:11;;;;;;;12.83;6.53;;;;;;;;;;6213002;22;20155;-92
2023/11/27 05:13:16;;;;;;;14.37;7.23;;;;;;;;;;6210807;23;20206;-89
2023/11/27 05:16:23;;;;;;;18.00;6.97;;;;;;;;;;6212148;22;20267;-91
2023/11/27 05:19:30;;;;;;;16.53;6.40;;;;;;;;;;6212125;22;20234;-91
2023/11/27 05:22:34;;;;;;;14.23;6.17;;;;;;;;;;6211427;23;20183;-92
2023/11/27 05:25:40;;;;;;;14.57;6.43;;;;;;;;;;6212055;23;20168;-88
2023/11/27 05:28:45;;;;;;;12.60;6.20;;;;;;;;;;6228939;22;20638;-89
2023/11/27 05:31:51;;;;;;;13.90;6.20;;;;;;;;;;6213089;22;20167;-92
2023/11/27 05:34:57;;;;;;;12.57;6.47;;;;;;;;;;6213067;23;20171;-90
2023/11/27 05:38:02;;;;;;;13.57;7.13;;;;;;;;;;6211965;22;20198;-91
2023/11/27 05:41:11;;;;;;;16.30;7.30;;;;;;;;;;6211005;23;20171;-92
2023/11/27 05:44:17;;;;;;;16.03;7.33;;;;;;;;;;6210549;23;20307;-91
2023/11/27 05:47:24;;;;;;;11.73;6.10;;;;;;;;;;6210994;22;20310;-91
2023/11/27 05:50:29;;;;;;;13.07;6.37;;;;;;;;;;6212058;23;20189;-90
2023/11/27 05:53:35;;;;;;;12.37;6.53;;;;;;;;;;6212555;23;20156;-90
2023/11/27 05:56:40;;;;;;;13.83;6.83;;;;;;;;;;6211898;23;20322;-91
2023/11/27 05:59:45;;;;;;;13.17;6.87;;;;;;;;;;6212334;22;20143;-93
2023/11/27 06:02:55;;;;;;;14.17;7.70;;;;;;;;;;6214619;23;20171;-89
2023/11/27 06:06:00;;;;;;;14.90;7.70;;;;;;;;;;6212735;23;20179;-93
2023/11/27 06:09:06;;;;;;;14.47;7.50;;;;;;;;;;6213897;23;20171;-93
2023/11/27 06:12:12;;;;;;;13.27;7.30;;;;;;;;;;6215222;22;20577;-91
2023/11/27 06:15:17;;;;;;;13.73;7.17;;;;;;;;;;6216019;22;20187;-90
2023/11/27 06:18:25;;;;;;;13.00;6.70;;;;;;;;;;6216482;23;20529;-89
2023/11/27 06:21:31;;;;;;;13.43;7.07;;;;;;;;;;6215711;23;20658;-89
2023/11/27 06:24:36;;;;;;;10.57;6.30;;;;;;;;;;6216066;23;20196;-91
2023/11/27 06:27:41;;;;;;;10.93;5.67;;;;;;;;;;6214472;23;20180;-90
2023/11/27 06:30:49;;;;;;;11.97;6.13;;;;;;;;;;6214571;23;20226;-90
2023/11/27 06:33:57;;;;;;;15.17;6.93;;;;;;;;;;6213772;23;20254;-92
2023/11/27 06:37:02;;;;;;;15.57;7.07;;;;;;;;;;6213549;23;20202;-89
2023/11/27 06:40:08;;;;;;;12.60;6.70;;;;;;;;;;6213332;23;20166;-90
2023/11/27 06:43:13;;;;;;;13.33;7.13;;;;;;;;;;6214116;22;20163;-91
2023/11/27 06:46:18;;;;;;;14.37;7.43;;;;;;;;;;6213715;23;20214;-90
2023/11/27 06:49:26;;;;;;;18.97;7.73;;;;;;;;;;6214320;23;20722;-91
2023/11/27 06:55:52;;;;;;;15.97;6.37;;;;;;;;;;6216365;23;20167;-90
2023/11/27 06:58:58;;;;;;;13.20;6.60;;;;;;;;;;6213782;23;20211;-91
2023/11/27 07:02:05;;;;;;;15.27;7.13;;;;;;;;;;6218551;23;20191;-89
2023/11/27 07:05:14;;;;;;;14.47;6.63;;;;;;;;;;6219418;23;20240;-92
2023/11/27 07:08:19;;;;;;;11.67;5.90;;;;;;;;;;6217689;23;20183;-88
2023/11/27 07:11:29;;;;;;;17.83;7.47;;;;;;;;;;6219044;22;20179;-90
2023/11/27 07:14:45;;;;;;;13.30;7.00;;;;;;;;;;6218821;22;20175;-92
2023/11/27 07:17:54;;;;;;;13.93;6.10;;;;;;;;;;6201590;23;20195;-90
2023/11/27 07:21:02;;;;;;;12.70;6.43;;;;;;;;;;6218561;23;20199;-91
2023/11/27 07:24:09;;;;;;;14.03;6.63;;;;;;;;;;6218575;22;20187;-89
2023/11/27 07:27:15;;;;;;;12.73;6.13;;;;;;;;;;6218221;22;20179;-89
2023/11/27 07:30:20;;;;;;;22.80;9.00;;;;;;;;;;6215120;23;20622;-90
2023/11/27 07:33:26;;;;;;;17.93;7.00;;;;;;;;;;6214713;23;20234;-90
2023/11/27 07:36:36;;;;;;;14.27;7.37;;;;;;;;;;6216844;23;20222;-91
2023/11/27 07:39:42;;;;;;;14.37;7.27;;;;;;;;;;6215108;23;20175;-89
2023/11/27 07:42:48;;;;;;;16.37;7.53;;;;;;;;;;6214078;23;20171;-90
2023/11/27 07:45:54;;;;;;;16.33;7.20;;;;;;;;;;6213463;23;20172;-90
2023/11/27 07:49:00;;;;;;;17.10;7.40;;;;;;;;;;6214399;23;20214;-90
2023/11/27 07:52:09;;;;;;;13.93;7.03;;;;;;;;;;6214669;23;20179;-91
2023/11/27 07:55:15;;;;;;;17.57;8.50;;;;;;;;;;6214307;22;20174;-90
2023/11/27 07:58:20;;;;;;;14.13;7.37;;;;;;;;;;6211917;22;20194;-91
2023/11/27 08:01:26;;;;;;;13.73;7.43;;;;;;;;;;6212675;23;20282;-91
2023/11/27 08:04:32;;;;;;;15.77;7.67;;;;;;;;;;6213718;23;20154;-92
2023/11/27 08:07:43;;;;;;;17.23;8.00;;;;;;;;;;6215494;22;20162;-91
2023/11/27 08:10:49;;;;;;;12.77;6.87;;;;;;;;;;6213654;23;20166;-89
2023/11/27 08:13:55;;;;;;;12.30;7.20;;;;;;;;;;6213632;22;20167;-90
2023/11/27 08:17:01;;;;;;;18.50;8.27;;;;;;;;;;6215402;22;20167;-90
2023/11/27 08:20:06;;;;;;;14.30;7.03;;;;;;;;;;6215244;22;20167;-92
2023/11/27 08:23:14;;;;;;;15.47;7.63;;;;;;;;;;6217778;22;20172;-92
2023/11/27 08:26:20;;;;;;;14.33;7.10;;;;;;;;;;6214649;23;20290;-91
2023/11/27 08:29:26;;;;;;;14.40;7.50;;;;;;;;;;6216211;22;20187;-90
2023/11/27 08:32:32;;;;;;;18.07;8.40;;;;;;;;;;6215664;23;20175;-86
2023/11/27 08:35:38;;;;;;;14.60;7.63;;;;;;;;;;6216402;22;20211;-91
2023/11/27 08:38:46;;;;;;;14.00;6.87;;;;;;;;;;6216341;22;20198;-89
2023/11/27 08:41:53;;;;;;;14.37;7.23;;;;;;;;;;6215612;23;20167;-92
2023/11/27 08:45:00;;;;;;;13.40;6.30;;;;;;;;;;6216095;23;20218;-90
2023/11/27 08:48:06;;;;;;;14.90;6.83;;;;;;;;;;6214883;23;20194;-91
2023/11/27 08:51:11;;;;;;;12.87;6.67;;;;;;;;;;6235928;22;20253;-89
2023/11/27 08:54:19;;;;;;;15.50;6.27;;;;;;;;;;6216437;23;20159;-90
2023/11/27 08:57:24;;;;;;;12.93;6.10;;;;;;;;;;6214663;23;20187;-91
2023/11/27 09:00:30;;;;;;;11.43;6.47;;;;;;;;;;6214620;22;20154;-92
2023/11/27 09:03:35;;;;;;;14.00;6.87;;;;;;;;;;6215115;22;20175;-88
2023/11/27 09:06:41;;;;;;;13.03;6.00;;;;;;;;;;6218845;22;20171;-91
2023/11/27 09:09:53;;;;;;;13.70;6.83;;;;;;;;;;6216076;23;20171;-91
2023/11/27 09:12:58;;;;;;;11.37;5.43;;;;;;;;;;6214864;23;20162;-93
2023/11/27 09:16:04;;;;;;;12.17;5.37;;;;;;;;;;6215460;22;20195;-91
2023/11/27 09:19:11;;;;;;;14.83;6.30;;;;;;;;;;6215962;22;20251;-92
2023/11/27 09:22:21;;;;;;;12.30;6.00;;;;;;;;;;6216024;22;20179;-91
2023/11/27 09:25:41;;;;;;;10.77;5.70;;;;;;;;;;6216784;23;20243;-90
2023/11/27 09:36:17;;;;;;;11.73;6.07;;;;;;;;;;6223280;22;20223;-92
2023/11/27 09:46:33;;;;;;;9.80;5.40;;;;;;;;;;6220888;23;20186;-90
2023/11/27 09:49:46;;;;;;;11.97;6.40;;;;;;;;;;6221131;22;20155;-89
2023/11/27 09:52:53;;;;;;;11.33;5.53;;;;;;;;;;6217000;23;20183;-92
2023/11/27 09:55:59;;;;;;;11.60;6.00;;;;;;;;;;6217217;23;20216;-91
2023/11/27 09:59:09;;;;;;;8.80;4.93;;;;;;;;;;6216008;23;20685;-91
2023/11/27 10:02:15;;;;;;;11.83;5.40;;;;;;;;;;6213594;23;20190;-92
2023/11/27 10:08:42;;;;;;;11.70;5.10;;;;;;;;;;6217708;23;20187;-91
2023/11/27 10:11:52;;;;;;;9.87;4.50;;;;;;;;;;6216259;23;20169;-91
2023/11/27 10:15:02;;;;;;;9.33;4.50;;;;;;;;;;6214894;22;20166;-91
2023/11/27 10:18:08;;;;;;;10.97;4.50;;;;;;;;;;6213289;22;20509;-92
2023/11/27 10:21:15;;;;;;;12.40;5.87;;;;;;;;;;6215750;23;20199;-90
2023/11/27 10:24:21;;;;;;;9.60;5.20;;;;;;;;;;6218497;23;20186;-89
2023/11/27 10:27:27;;;;;;;8.50;4.63;;;;;;;;;;6218647;23;20451;-90
2023/11/27 10:30:33;;;;;;;8.90;4.63;;;;;;;;;;6217004;22;20175;-89
2023/11/27 10:33:40;;;;;;;13.70;4.03;;;;;;;;;;6213683;23;20175;-91
2023/11/27 10:36:56;;;;;;;9.80;5.10;;;;;;;;;;6216590;22;20191;-90
2023/11/27 10:40:04;;;;;;;7.43;4.20;;;;;;;;;;6217561;22;20168;-90
2023/11/27 10:43:10;;;;;;;7.73;3.90;;;;;;;;;;6215410;23;20175;-90
2023/11/27 10:46:18;;;;;;;7.97;4.23;;;;;;;;;;6216351;22;20637;-90
2023/11/27 10:49:24;;;;;;;9.17;4.20;;;;;;;;;;6216816;23;20164;-91
2023/11/27 10:52:31;;;;;;;8.87;4.47;;;;;;;;;;6216543;23;20171;-89
2023/11/27 10:55:38;;;;;;;8.00;4.47;;;;;;;;;;6215174;22;20207;-91
2023/11/27 10:58:43;;;;;;;5.90;3.70;;;;;;;;;;6212906;23;20183;-91
2023/11/27 11:02:00;;;;;;;8.40;3.80;;;;;;;;;;6215920;22;20191;-90
2023/11/27 11:05:07;;;;;;;12.13;4.47;;;;;;;;;;6217181;22;20230;-91
2023/11/27 11:08:13;;;;;;;9.67;5.57;;;;;;;;;;6214368;23;20609;-90
2023/11/27 11:11:20;;;;;;;7.73;4.20;;;;;;;;;;6213026;22;20167;-88
2023/11/27 11:14:27;;;;;;;9.82;4.95;;;;;;;;;;6215368;23;20176;-90
2023/11/27 11:17:38;;;;;;;7.33;4.33;;;;;;;;;;6212312;23;20167;-88
2023/11/27 11:20:54;;;;;;;8.23;3.97;;;;;;;;;;6214160;22;20167;-90
2023/11/27 11:24:04;;;;;;;8.00;3.72;;;;;;;;;;6211961;22;20168;-90
2023/11/27 11:27:19;;;;;;;6.60;3.63;;;;;;;;;;6212696;23;20614;-89
2023/11/27 11:30:25;;;;;;;8.57;4.00;;;;;;;;;;6212785;23;20171;-89
2023/11/27 11:33:33;;;;;;;7.37;3.30;;;;;;;;;;6214227;23;20171;-90
2023/11/27 11:36:38;;;;;;;9.77;4.05;;;;;;;;;;6211905;23;20168;-92
2023/11/27 11:39:45;;;;;;;7.73;3.23;;;;;;;;;;6214377;22;20195;-91
2023/11/27 11:42:50;;;;;;;5.77;3.20;;;;;;;;;;6212221;22;20191;-90
2023/11/27 11:45:57;;;;;;;5.70;3.60;;;;;;;;;;6214081;23;20216;-91
2023/11/27 11:49:06;;;;;;;6.15;3.40;;;;;;;;;;6212349;23;20266;-90
2023/11/27 11:52:15;;;;;;;6.47;3.33;;;;;;;;;;6211483;22;20167;-91
2023/11/27 11:55:30;;;;;;;8.90;3.95;;;;;;;;;;6212682;23;20175;-92
2023/11/27 11:58:36;;;;;;;6.70;3.58;;;;;;;;;;6210555;23;20195;-92
2023/11/27 12:01:49;;;;;;;7.15;3.75;;;;;;;;;;6213569;23;20649;-91
2023/11/27 12:05:01;;;;;;;6.13;3.17;;;;;;;;;;6214199;22;20236;-90
2023/11/27 12:08:07;;;;;;;6.50;3.53;;;;;;;;;;6213293;22;20218;-91
2023/11/27 12:11:14;;;;;;;6.95;3.55;;;;;;;;;;6212923;23;20224;-92
2023/11/27 12:14:19;;;;;;;4.88;2.92;;;;;;;;;;6212146;23;20171;-92
2023/11/27 12:17:25;;;;;;;5.20;3.20;;;;;;;;;;6211362;23;20163;-92
2023/11/27 12:20:34;;;;;;;11.43;3.17;;;;;;;;;;6210601;22;20147;-90
2023/11/27 12:23:40;;;;;;;6.05;3.17;;;;;;;;;;6212105;23;20238;-91
2023/11/27 12:26:51;;;;;;;6.95;3.10;;;;;;;;;;6211784;23;20166;-90
2023/11/27 12:29:57;;;;;;;7.30;3.27;;;;;;;;;;6211464;23;20183;-90
2023/11/27 12:33:04;;;;;;;6.40;3.07;;;;;;;;;;6214913;23;20162;-90
2023/11/27 12:36:12;;;;;;;9.80;4.27;;;;;;;;;;6196725;22;20175;-90
2023/11/27 12:39:25;;;;;;;7.23;4.17;;;;;;;;;;6212310;22;20206;-93
2023/11/27 12:42:30;;;;;;;10.97;3.63;;;;;;;;;;6214355;23;20158;-94
2023/11/27 12:45:36;;;;;;;7.03;3.10;;;;;;;;;;6214657;23;20167;-91
2023/11/27 12:48:45;;;;;;;5.20;2.60;;;;;;;;;;6214373;23;20155;-90
2023/11/27 12:51:57;;;;;;;7.87;2.90;;;;;;;;;;6216757;22;20155;-89
2023/11/27 12:55:01;;;;;;;5.13;2.77;;;;;;;;;;6214540;23;20167;-91
2023/11/27 12:58:10;;;;;;;8.87;3.80;;;;;;;;;;6216412;23;20170;-89
2023/11/27 13:01:15;;;;;;;6.82;3.78;;;;;;;;;;6213084;23;20269;-91
2023/11/27 13:04:22;;;;;;;7.53;3.70;;;;;;;;;;6213230;23;20275;-90
2023/11/27 13:07:32;;;;;;;4.68;2.83;;;;;;;;;;6214025;22;20216;-92
2023/11/27 13:10:43;;;;;;;7.43;3.30;;;;;;;;;;6212266;22;20194;-91
2023/11/27 13:13:48;;;;;;;7.25;2.97;;;;;;;;;;6211225;23;20234;-92
2023/11/27 13:16:53;;;;;;;8.45;3.05;;;;;;;;;;6217168;23;20248;-89
2023/11/27 13:20:07;;;;;;;5.03;2.70;;;;;;;;;;6210877;23;20524;-91
2023/11/27 13:23:15;;;;;;;4.40;2.77;;;;;;;;;;6211980;23;20213;-89
2023/11/27 13:26:28;;;;;;;4.83;2.63;;;;;;;;;;6213657;23;20286;-90
2023/11/27 13:29:33;;;;;;;5.53;2.77;;;;;;;;;;6210771;22;20215;-91
2023/11/27 13:32:38;;;;;;;5.17;2.77;;;;;;;;;;6213318;22;20187;-90
2023/11/27 13:35:44;;;;;;;8.50;2.97;;;;;;;;;;6215928;22;20155;-90
2023/11/27 13:38:54;;;;;;;6.73;2.90;;;;;;;;;;6214366;22;20195;-91
2023/11/27 13:42:04;;;;;;;6.70;3.40;;;;;;;;;;6218135;23;20174;-91
2023/11/27 13:45:14;;;;;;;9.17;3.50;;;;;;;;;;6217505;22;20167;-93
2023/11/27 13:48:21;;;;;;;5.73;3.10;;;;;;;;;;6216225;23;20210;-92
2023/11/27 13:51:32;;;;;;;6.73;3.07;;;;;;;;;;6215571;23;20502;-89
2023/11/27 13:54:39;;;;;;;6.60;3.10;;;;;;;;;;6217395;23;20615;-90
2023/11/27 13:57:48;;;;;;;5.65;3.17;;;;;;;;;;6217610;22;20187;-91
2023/11/27 14:01:01;;;;;;;4.83;2.90;;;;;;;;;;6210785;23;20186;-92
2023/11/27 14:07:33;;;;;;;7.22;3.25;;;;;;;;;;6215019;22;20222;-90
2023/11/27 14:11:09;;;;;;;6.70;2.43;;;;;;;;;;6216219;23;20163;-89
2023/11/27 14:14:15;;;;;;;9.93;4.33;;;;;;;;;;6233972;22;20166;-92
2023/11/27 14:17:31;;;;;;;7.77;3.20;;;;;;;;;;6216941;23;20241;-90
2023/11/27 14:21:41;;;;;;;6.40;3.00;;;;;;;;;;6215729;22;20178;-90
2023/11/27 14:24:18;;;;;;;6.93;3.10;;;;;;;;;;6216182;23;20187;-91
2023/11/27 14:27:37;;;;;;;7.67;3.23;;;;;;;;;;6218173;23;20237;-93
2023/11/27 14:30:44;;;;;;;8.47;2.70;;;;;;;;;;6217648;22;20237;-91
2023/11/27 14:33:50;;;;;;;7.97;3.07;;;;;;;;;;6217622;22;20171;-90
2023/11/27 14:36:57;;;;;;;4.83;2.83;;;;;;;;;;6216701;23;20163;-91
2023/11/27 14:40:19;;;;;;;6.50;2.80;;;;;;;;;;6219448;23;20194;-89
2023/11/27 14:43:29;;;;;;;6.93;3.10;;;;;;;;;;6215980;22;20256;-89
2023/11/27 14:46:34;;;;;;;9.90;4.80;;;;;;;;;;6219327;22;20152;-90
2023/11/27 14:49:41;;;;;;;32.00;12.73;;;;;;;;;;6219678;22;20167;-91
2023/11/27 14:52:47;;;;;;;13.43;5.73;;;;;;;;;;6216713;23;20167;-92
2023/11/27 14:55:55;;;;;;;4.20;2.90;;;;;;;;;;6214861;23;20159;-89
2023/11/27 14:59:07;;;;;;;7.47;3.03;;;;;;;;;;6216659;23;20234;-90
2023/11/27 15:02:12;;;;;;;8.60;3.63;;;;;;;;;;6217305;23;20243;-92
2023/11/27 15:05:17;;;;;;;7.60;3.93;;;;;;;;;;6219150;23;20194;-92
2023/11/27 15:08:25;;;;;;;8.80;3.17;;;;;;;;;;6221341;23;20191;-89
2023/11/27 15:11:37;;;;;;;7.47;3.93;;;;;;;;;;6218227;23;20175;-89
2023/11/27 15:14:47;;;;;;;7.27;3.23;;;;;;;;;;6218551;22;20167;-90
2023/11/27 15:17:52;;;;;;;7.47;3.30;;;;;;;;;;6217062;23;20243;-90
2023/11/27 15:20:59;;;;;;;5.97;2.93;;;;;;;;;;6215360;22;20178;-89
2023/11/27 15:24:04;;;;;;;5.03;3.00;;;;;;;;;;6216612;22;20187;-89
2023/11/27 15:27:10;;;;;;;6.20;3.57;;;;;;;;;;6216374;23;20163;-89
2023/11/27 15:30:18;;;;;;;6.53;3.33;;;;;;;;;;6217394;23;20167;-90
2023/11/27 15:33:25;;;;;;;30.43;11.70;;;;;;;;;;6200283;23;20172;-92
2023/11/27 15:36:30;;;;;;;14.30;6.33;;;;;;;;;;6217221;23;20626;-89
2023/11/27 15:39:36;;;;;;;6.57;3.33;;;;;;;;;;6217586;23;20270;-86
2023/11/27 15:42:46;;;;;;;8.90;3.93;;;;;;;;;;6217132;22;20171;-92
2023/11/27 15:45:53;;;;;;;8.77;3.47;;;;;;;;;;6216241;22;20171;-88
2023/11/27 15:49:01;;;;;;;8.67;4.10;;;;;;;;;;6216740;23;20175;-90
2023/11/27 15:52:07;;;;;;;10.00;3.90;;;;;;;;;;6216155;23;20214;-90
2023/11/27 15:55:20;;;;;;;10.97;4.00;;;;;;;;;;6215731;23;20170;-90
2023/11/27 15:58:35;;;;;;;8.10;4.20;;;;;;;;;;6219246;22;20175;-91
2023/11/27 16:01:42;;;;;;;10.83;4.47;;;;;;;;;;6217555;23;20239;-91
2023/11/27 16:04:48;;;;;;;8.87;3.90;;;;;;;;;;6214897;23;20523;-90
2023/11/27 16:07:59;;;;;;;7.60;3.70;;;;;;;;;;6216149;22;20170;-88
2023/11/27 16:11:07;;;;;;;6.30;3.37;;;;;;;;;;6216716;22;20248;-89
2023/11/27 16:14:17;;;;;;;8.57;3.70;;;;;;;;;;6216402;23;20171;-89
2023/11/27 16:17:46;;;;;;;7.33;4.00;;;;;;;;;;6219035;23;20174;-91
2023/11/27 16:20:54;;;;;;;13.17;4.07;;;;;;;;;;6217187;23;20185;-92
2023/11/27 16:23:59;;;;;;;10.33;4.50;;;;;;;;;;6213650;22;20176;-88
2023/11/27 16:27:05;;;;;;;13.97;6.60;;;;;;;;;;6217609;23;20179;-91
2023/11/27 16:30:17;;;;;;;13.27;5.80;;;;;;;;;;6217766;23;20262;-92
2023/11/27 16:33:23;;;;;;;20.57;7.87;;;;;;;;;;6216338;23;20238;-90
2023/11/27 16:36:34;;;;;;;17.50;6.77;;;;;;;;;;6217621;23;20483;-91
2023/11/27 16:39:41;;;;;;;25.53;8.93;;;;;;;;;;6214457;23;20267;-89
2023/11/27 16:42:50;;;;;;;18.83;8.07;;;;;;;;;;6218093;23;20206;-91
2023/11/27 16:46:08;;;;;;;18.17;7.33;;;;;;;;;;6217387;23;20175;-91
2023/11/27 16:55:55;;;;;;;19.30;7.77;;;;;;;;;;6219665;23;20221;-91
2023/11/27 16:59:00;;;;;;;24.87;8.37;;;;;;;;;;6219814;22;20147;-90
2023/11/27 17:02:08;;;;;;;13.77;5.70;;;;;;;;;;6218265;23;20270;-88
2023/11/27 17:05:26;;;;;;;12.07;5.93;;;;;;;;;;6220713;23;20220;-90
2023/11/27 17:08:48;;;;;;;14.40;6.00;;;;;;;;;;6219146;23;20192;-91
2023/11/27 17:15:22;;;;;;;18.70;7.43;;;;;;;;;;6219382;23;20156;-91
2023/11/27 17:18:31;;;;;;;19.47;7.93;;;;;;;;;;6216850;23;20251;-88
2023/11/27 17:21:37;;;;;;;15.37;6.83;;;;;;;;;;6218553;23;20195;-90
2023/11/27 17:24:53;;;;;;;13.60;6.60;;;;;;;;;;6218312;23;20183;-89
2023/11/27 17:28:05;;;;;;;11.10;5.30;;;;;;;;;;6218009;22;20175;-90
2023/11/27 17:34:32;;;;;;;11.53;5.50;;;;;;;;;;6217855;23;20202;-90
2023/11/27 17:37:49;;;;;;;15.97;7.33;;;;;;;;;;6218438;23;20155;-92
2023/11/27 17:41:04;;;;;;;12.23;5.53;;;;;;;;;;6217524;23;20210;-90
2023/11/27 17:44:10;;;;;;;15.77;8.00;;;;;;;;;;6217284;23;20503;-90
2023/11/27 17:47:17;;;;;;;16.87;8.17;;;;;;;;;;6214900;22;20630;-91
2023/11/27 17:50:23;;;;;;;16.27;6.97;;;;;;;;;;6215386;23;20178;-89
2023/11/27 17:53:28;;;;;;;18.67;8.37;;;;;;;;;;6215877;23;20175;-88
2023/11/27 17:56:42;;;;;;;12.77;7.63;;;;;;;;;;6216762;23;20167;-89
2023/11/27 17:59:51;;;;;;;13.87;6.77;;;;;;;;;;6201889;23;20175;-91
2023/11/27 18:02:57;;;;;;;15.17;7.40;;;;;;;;;;6218872;22;20163;-91
2023/11/27 18:06:03;;;;;;;14.73;6.87;;;;;;;;;;6217218;23;20167;-90
2023/11/27 18:09:11;;;;;;;9.97;5.30;;;;;;;;;;6214764;23;20228;-90
2023/11/27 18:12:21;;;;;;;11.70;5.80;;;;;;;;;;6216442;23;20191;-92
2023/11/27 18:15:26;;;;;;;15.87;7.23;;;;;;;;;;6217528;23;20163;-92
2023/11/27 18:18:32;;;;;;;11.73;6.37;;;;;;;;;;6217762;23;20171;-93
2023/11/27 18:21:41;;;;;;;15.17;5.97;;;;;;;;;;6219774;23;20214;-90
2023/11/27 18:24:48;;;;;;;16.53;6.53;;;;;;;;;;6221863;23;20167;-88
2023/11/27 18:27:58;;;;;;;18.70;7.77;;;;;;;;;;6221456;23;20179;-89
2023/11/27 18:31:06;;;;;;;13.43;6.20;;;;;;;;;;6220422;23;20171;-93
2023/11/27 18:34:13;;;;;;;12.00;5.77;;;;;;;;;;6222263;22;20488;-89
2023/11/27 18:37:19;;;;;;;12.27;5.40;;;;;;;;;;6220041;23;20215;-89
2023/11/27 18:40:27;;;;;;;20.30;6.60;;;;;;;;;;6218956;23;20199;-90
2023/11/27 18:43:37;;;;;;;11.23;5.77;;;;;;;;;;6220152;22;20604;-90
2023/11/27 18:46:44;;;;;;;19.20;6.97;;;;;;;;;;6220802;23;20224;-87
2023/11/27 18:49:52;;;;;;;15.53;6.73;;;;;;;;;;6202638;23;20166;-90
2023/11/27 18:52:59;;;;;;;11.17;5.63;;;;;;;;;;6221393;23;20206;-90
2023/11/27 18:56:07;;;;;;;12.13;5.60;;;;;;;;;;6221473;22;20194;-89
2023/11/27 18:59:17;;;;;;;12.73;5.47;;;;;;;;;;6221447;23;20187;-91
2023/11/27 19:02:33;;;;;;;17.37;6.73;;;;;;;;;;6220079;23;20190;-91
2023/11/27 19:05:42;;;;;;;10.13;5.50;;;;;;;;;;6220524;23;20168;-89
2023/11/27 19:08:49;;;;;;;16.07;6.03;;;;;;;;;;6219807;23;20208;-91
2023/11/27 19:15:35;;;;;;;14.33;6.20;;;;;;;;;;6240818;22;20167;-90